createdAt,value
2019-04-26T00:01:07.539Z,1.03
2019-04-26T00:03:43.568Z,1.20
2019-04-26T00:06:14.857Z,1.27
2019-04-26T00:08:48.277Z,1.03
2019-04-26T00:11:27.190Z,1.37
2019-04-26T00:14:12.789Z,1.00
2019-04-26T00:16:50.930Z,1.17
2019-04-26T00:19:20.871Z,1.03
2019-04-26T00:21:50.860Z,1.30
2019-04-26T00:24:21.728Z,1.37
2019-04-26T00:26:51.649Z,0.83
2019-04-26T00:29:21.714Z,1.10
2019-04-26T00:31:51.843Z,1.20
2019-04-26T00:34:21.798Z,1.03
2019-04-26T00:36:51.747Z,1.10
2019-04-26T00:39:23.216Z,1.30
2019-04-26T00:41:53.724Z,1.10
2019-04-26T00:44:23.716Z,1.20
2019-04-26T00:46:55.859Z,1.10
2019-04-26T00:49:27.386Z,1.00
2019-04-26T00:51:57.790Z,1.23
2019-04-26T00:54:28.803Z,1.30
2019-04-26T00:56:59.615Z,1.40
2019-04-26T00:59:30.205Z,1.30
2019-04-26T01:02:06.949Z,1.30
2019-04-26T01:04:36.932Z,1.00
2019-04-26T01:07:06.998Z,1.30
2019-04-26T01:09:36.985Z,1.33
2019-04-26T01:12:06.964Z,1.10
2019-04-26T01:14:36.921Z,1.20
2019-04-26T01:17:06.840Z,1.43
2019-04-26T01:19:39.331Z,1.67
2019-04-26T01:22:13.482Z,1.10
2019-04-26T01:24:46.751Z,1.20
2019-04-26T01:27:19.539Z,1.40
2019-04-26T01:29:52.134Z,1.17
2019-04-26T01:32:22.820Z,1.30
2019-04-26T01:34:53.903Z,1.27
2019-04-26T01:37:24.738Z,1.20
2019-04-26T01:40:00.121Z,1.47
2019-04-26T01:42:44.173Z,1.17
2019-04-26T01:45:30.026Z,1.50
2019-04-26T01:48:05.041Z,1.50
2019-04-26T01:50:35.835Z,1.13
2019-04-26T01:53:06.812Z,1.20
2019-04-26T01:55:36.785Z,1.37
2019-04-26T01:58:06.963Z,1.47
2019-04-26T02:00:56.387Z,1.10
2019-04-26T02:03:28.445Z,1.10
2019-04-26T02:05:58.739Z,1.60
2019-04-26T02:08:28.660Z,1.40
2019-04-26T02:10:58.647Z,1.40
2019-04-26T02:13:28.905Z,1.47
2019-04-26T02:15:58.747Z,1.83
2019-04-26T02:18:29.469Z,1.43
2019-04-26T02:21:15.346Z,1.90
2019-04-26T02:23:56.988Z,1.80
2019-04-26T02:26:40.772Z,1.60
2019-04-26T02:29:14.692Z,1.80
2019-04-26T02:31:47.581Z,2.47
2019-04-26T02:34:17.907Z,1.80
2019-04-26T02:36:57.774Z,1.90
2019-04-26T02:39:22.753Z,2.00
2019-04-26T02:41:55.707Z,1.90
2019-04-26T02:44:33.131Z,1.73
2019-04-26T02:47:53.026Z,2.10
2019-04-26T02:50:46.621Z,2.57
2019-04-26T02:53:31.660Z,2.10
2019-04-26T02:56:13.076Z,2.20
2019-04-26T02:59:05.941Z,1.90
2019-04-26T03:01:36.673Z,2.07
2019-04-26T03:04:07.590Z,1.90
2019-04-26T03:06:41.151Z,1.90
2019-04-26T03:09:14.126Z,1.80
2019-04-26T03:11:47.610Z,2.10
2019-04-26T03:14:44.489Z,2.00
2019-04-26T03:17:27.942Z,2.13
2019-04-26T03:20:03.217Z,1.90
2019-04-26T03:22:57.276Z,1.90
2019-04-26T03:25:44.400Z,2.20
2019-04-26T03:28:24.757Z,2.10
2019-04-26T03:31:21.365Z,2.10
2019-04-26T03:34:43.340Z,1.90
2019-04-26T03:37:58.744Z,2.40
2019-04-26T03:40:55.360Z,2.50
2019-04-26T03:44:02.422Z,2.53
2019-04-26T03:46:43.072Z,2.37
2019-04-26T03:50:02.059Z,2.40
2019-04-26T03:53:11.356Z,2.30
2019-04-26T03:56:05.392Z,2.40
2019-04-26T03:59:20.538Z,2.63
2019-04-26T04:02:04.918Z,2.67
2019-04-26T04:04:45.553Z,2.63
2019-04-26T04:07:35.580Z,2.20
2019-04-26T04:09:57.906Z,2.40
2019-04-26T04:12:46.297Z,2.53
2019-04-26T04:15:24.152Z,2.27
2019-04-26T04:18:00.825Z,2.60
2019-04-26T04:21:01.134Z,2.40
2019-04-26T04:24:09.503Z,2.30
2019-04-26T04:27:10.466Z,2.40
2019-04-26T04:29:55.254Z,2.50
2019-04-26T04:32:39.614Z,2.23
2019-04-26T04:35:12.340Z,2.50
2019-04-26T04:38:08.608Z,2.13
2019-04-26T04:40:47.133Z,2.33
2019-04-26T04:43:37.220Z,2.43
2019-04-26T04:47:22.809Z,2.80
2019-04-26T04:50:18.169Z,2.97
2019-04-26T04:53:08.843Z,2.20
2019-04-26T04:56:16.012Z,2.60
2019-04-26T04:58:52.430Z,2.60
2019-04-26T05:02:04.371Z,2.50
2019-04-26T05:05:04.424Z,2.40
2019-04-26T05:08:06.737Z,2.40
2019-04-26T05:10:44.288Z,2.60
2019-04-26T05:13:40.661Z,2.50
2019-04-26T05:16:46.819Z,2.10
2019-04-26T05:19:45.857Z,2.60
2019-04-26T05:22:29.715Z,2.37
2019-04-26T05:25:59.314Z,2.40
2019-04-26T05:28:44.096Z,2.30
2019-04-26T05:31:30.230Z,1.87
2019-04-26T05:34:43.958Z,2.47
2019-04-26T05:37:29.917Z,2.00
2019-04-26T05:40:09.233Z,2.23
2019-04-26T05:43:18.018Z,2.10
2019-04-26T05:46:44.781Z,2.27
2019-04-26T05:49:55.878Z,2.37
2019-04-26T05:53:05.651Z,2.13
2019-04-26T05:56:11.695Z,2.20
2019-04-26T05:58:59.728Z,2.50
2019-04-26T06:02:01.867Z,2.40
2019-04-26T06:05:11.892Z,2.97
2019-04-26T06:08:41.259Z,2.30
2019-04-26T06:11:21.870Z,1.80
2019-04-26T06:14:47.102Z,2.20
2019-04-26T06:17:58.064Z,2.30
2019-04-26T06:20:34.908Z,2.50
2019-04-26T06:23:29.448Z,2.23
2019-04-26T06:26:32.051Z,2.27
2019-04-26T06:29:07.729Z,2.20
2019-04-26T06:31:45.515Z,2.10
2019-04-26T06:34:23.059Z,2.00
2019-04-26T06:37:22.481Z,2.10
2019-04-26T06:40:13.675Z,2.33
2019-04-26T06:43:06.489Z,2.30
2019-04-26T06:46:22.984Z,2.10
2019-04-26T06:49:35.559Z,2.07
2019-04-26T06:52:10.145Z,2.57
2019-04-26T06:55:12.384Z,2.00
2019-04-26T06:58:17.739Z,2.50
2019-04-26T07:01:12.989Z,2.50
2019-04-26T07:04:09.970Z,2.50
2019-04-26T07:06:52.368Z,2.07
2019-04-26T07:09:26.229Z,2.40
2019-04-26T07:12:30.432Z,2.20
2019-04-26T07:15:31.083Z,2.40
2019-04-26T07:18:32.484Z,2.10
2019-04-26T07:21:25.473Z,2.30
2019-04-26T07:24:32.405Z,2.30
2019-04-26T07:27:49.380Z,2.20
2019-04-26T07:30:48.084Z,1.80
2019-04-26T07:33:30.528Z,2.20
2019-04-26T07:36:35.586Z,2.00
2019-04-26T07:39:40.061Z,2.10
2019-04-26T07:42:57.727Z,2.00
2019-04-26T07:46:21.377Z,2.33
2019-04-26T07:49:02.913Z,2.20
2019-04-26T07:52:10.535Z,2.23
2019-04-26T07:55:26.720Z,1.77
2019-04-26T07:58:52.960Z,2.00
2019-04-26T08:01:54.436Z,1.97
2019-04-26T08:04:33.541Z,1.90
2019-04-26T08:07:10.350Z,1.80
2019-04-26T08:09:47.306Z,1.70
2019-04-26T08:12:20.300Z,1.90
2019-04-26T08:15:14.249Z,1.60
2019-04-26T08:18:05.242Z,1.73
2019-04-26T08:20:49.048Z,1.90
2019-04-26T08:23:38.464Z,1.93
2019-04-26T08:26:01.844Z,1.90
2019-04-26T08:28:35.919Z,1.80
2019-04-26T08:31:09.210Z,1.60
2019-04-26T08:33:48.846Z,1.60
2019-04-26T08:36:23.235Z,1.80
2019-04-26T08:38:53.920Z,1.43
2019-04-26T08:41:25.086Z,1.83
2019-04-26T08:44:18.802Z,1.60
2019-04-26T08:47:14.099Z,1.90
2019-04-26T08:50:01.325Z,2.43
2019-04-26T08:52:35.408Z,2.03
2019-04-26T08:55:07.666Z,1.93
2019-04-26T08:57:42.260Z,1.80
2019-04-26T09:00:26.904Z,2.10
2019-04-26T09:03:11.717Z,2.13
2019-04-26T09:06:03.243Z,2.10
2019-04-26T09:08:39.183Z,2.10
2019-04-26T09:11:23.735Z,2.30
2019-04-26T09:13:46.949Z,2.10
2019-04-26T09:16:20.784Z,2.00
2019-04-26T09:18:54.245Z,2.00
2019-04-26T09:21:42.399Z,2.00
2019-04-26T09:24:30.084Z,1.93
2019-04-26T09:27:08.408Z,1.77
2019-04-26T09:29:45.165Z,2.03
2019-04-26T09:32:17.654Z,1.80
2019-04-26T09:34:48.250Z,2.07
2019-04-26T09:37:18.160Z,2.43
2019-04-26T09:39:48.200Z,2.57
2019-04-26T09:42:39.310Z,2.70
2019-04-26T09:45:16.669Z,2.67
2019-04-26T09:47:53.427Z,2.50
2019-04-26T09:50:42.439Z,2.53
2019-04-26T09:53:12.323Z,3.10
2019-04-26T09:55:42.287Z,2.90
2019-04-26T09:58:12.272Z,2.70
2019-04-26T10:00:44.169Z,3.00
2019-04-26T10:03:13.971Z,2.80
2019-04-26T10:05:43.992Z,2.50
2019-04-26T10:08:14.555Z,2.83
2019-04-26T10:10:44.762Z,2.37
2019-04-26T10:13:26.066Z,2.10
2019-04-26T10:16:02.646Z,2.30
2019-04-26T10:18:32.314Z,2.10
2019-04-26T10:21:02.325Z,2.00
2019-04-26T10:23:32.401Z,1.90
2019-04-26T10:26:02.409Z,1.97
2019-04-26T10:28:33.315Z,2.00
2019-04-26T10:31:03.281Z,2.60
2019-04-26T10:33:36.568Z,2.13
2019-04-26T10:36:05.021Z,2.50
2019-04-26T10:38:34.871Z,2.27
2019-04-26T10:41:04.921Z,2.17
2019-04-26T10:43:34.819Z,2.47
2019-04-26T10:46:05.175Z,2.10
2019-04-26T10:48:35.138Z,1.93
2019-04-26T10:51:07.320Z,1.33
2019-04-26T10:54:05.944Z,1.40
2019-04-26T10:56:58.874Z,1.17
2019-04-26T10:59:40.016Z,1.20
2019-04-26T11:02:16.906Z,0.97
2019-04-26T11:04:46.906Z,1.20
2019-04-26T11:07:16.915Z,0.80
2019-04-26T11:09:46.942Z,0.90
2019-04-26T11:12:17.150Z,1.63
2019-04-26T11:14:47.064Z,1.23
2019-04-26T11:17:17.802Z,1.50
2019-04-26T11:19:48.035Z,1.13
2019-04-26T11:22:28.597Z,0.97
2019-04-26T11:24:50.104Z,1.00
2019-04-26T11:27:21.353Z,0.70
2019-04-26T11:29:53.790Z,1.17
2019-04-26T11:32:24.296Z,1.10
2019-04-26T11:34:58.157Z,1.20
2019-04-26T11:37:25.887Z,1.20
2019-04-26T11:39:55.864Z,1.13
2019-04-26T11:42:25.849Z,1.10
2019-04-26T11:45:05.652Z,1.00
2019-04-26T11:47:27.329Z,1.00
2019-04-26T11:49:57.330Z,1.40
2019-04-26T11:52:27.300Z,1.33
2019-04-26T11:54:57.199Z,1.10
2019-04-26T11:57:27.046Z,1.10
2019-04-26T11:59:57.087Z,0.90
2019-04-26T12:02:27.006Z,1.07
2019-04-26T12:05:13.249Z,1.10
2019-04-26T12:07:47.897Z,0.90
2019-04-26T12:10:18.102Z,0.90
2019-04-26T12:12:51.721Z,1.00
2019-04-26T12:15:29.779Z,1.20
2019-04-26T12:17:58.319Z,0.97
2019-04-26T12:20:26.895Z,1.10
2019-04-26T12:22:54.807Z,1.00
2019-04-26T12:25:27.182Z,0.80
2019-04-26T12:27:57.361Z,0.60
2019-04-26T12:30:27.429Z,0.70
2019-04-26T12:32:57.295Z,0.77
2019-04-26T12:35:29.941Z,0.97
2019-04-26T12:37:58.902Z,0.57
2019-04-26T12:40:28.889Z,1.37
2019-04-26T12:42:58.840Z,0.93
2019-04-26T12:45:54.620Z,1.00
2019-04-26T12:48:24.732Z,0.80
2019-04-26T12:50:54.625Z,0.97
2019-04-26T12:53:26.677Z,0.77
2019-04-26T12:55:58.269Z,0.70
2019-04-26T12:58:27.873Z,1.00
2019-04-26T13:00:58.674Z,0.97
2019-04-26T13:03:29.219Z,0.70
2019-04-26T13:06:00.336Z,0.70
2019-04-26T13:08:31.328Z,0.50
2019-04-26T13:11:17.605Z,0.77
2019-04-26T13:13:57.036Z,0.70
2019-04-26T13:17:02.217Z,0.93
2019-04-26T13:19:32.300Z,1.00
2019-04-26T13:22:02.303Z,0.80
2019-04-26T13:24:35.508Z,0.70
2019-04-26T13:27:06.032Z,0.60
2019-04-26T13:29:35.661Z,0.80
2019-04-26T13:32:05.809Z,0.70
2019-04-26T13:34:37.230Z,0.80
2019-04-26T13:37:07.402Z,0.80
2019-04-26T13:39:37.322Z,0.60
2019-04-26T13:42:09.699Z,0.80
2019-04-26T13:45:00.794Z,0.73
2019-04-26T13:47:51.461Z,0.70
2019-04-26T13:50:26.681Z,0.67
2019-04-26T13:52:57.171Z,0.67
2019-04-26T13:55:29.405Z,0.80
2019-04-26T13:57:58.534Z,0.90
2019-04-26T14:00:31.377Z,0.90
2019-04-26T14:03:01.286Z,0.80
2019-04-26T14:05:31.206Z,0.77
2019-04-26T14:08:01.200Z,0.70
2019-04-26T14:10:31.149Z,0.80
2019-04-26T14:13:01.145Z,0.70
2019-04-26T14:15:31.209Z,1.00
2019-04-26T14:18:04.328Z,0.87
2019-04-26T14:20:32.755Z,0.83
2019-04-26T14:23:11.296Z,0.67
2019-04-26T14:25:55.482Z,0.70
2019-04-26T14:28:25.237Z,0.50
2019-04-26T14:30:55.401Z,0.77
2019-04-26T14:33:27.152Z,0.80
2019-04-26T14:35:56.844Z,0.90
2019-04-26T14:38:27.867Z,0.70
2019-04-26T14:41:04.103Z,0.80
2019-04-26T14:43:40.528Z,0.77
2019-04-26T14:46:01.709Z,0.80
2019-04-26T14:48:36.325Z,0.93
2019-04-26T14:51:08.194Z,0.70
2019-04-26T14:53:36.634Z,0.80
2019-04-26T14:56:07.515Z,1.00
2019-04-26T14:58:37.553Z,0.70
2019-04-26T15:01:09.189Z,1.13
2019-04-26T15:03:43.337Z,0.80
2019-04-26T15:06:16.706Z,1.00
2019-04-26T15:08:48.916Z,1.10
2019-04-26T15:11:20.016Z,0.90
2019-04-26T15:13:49.842Z,0.80
2019-04-26T15:16:23.906Z,1.20
2019-04-26T15:18:52.546Z,0.90
2019-04-26T15:21:22.861Z,1.10
2019-04-26T15:23:55.286Z,0.90
2019-04-26T15:26:29.581Z,0.90
2019-04-26T15:28:56.406Z,1.07
2019-04-26T15:31:26.300Z,1.00
2019-04-26T15:33:56.312Z,1.00
2019-04-26T15:36:26.208Z,1.33
2019-04-26T15:38:56.653Z,1.20
2019-04-26T15:41:54.788Z,0.97
2019-04-26T15:45:03.311Z,0.83
2019-04-26T15:47:55.096Z,1.03
2019-04-26T15:50:32.165Z,1.10
2019-04-26T15:53:02.501Z,1.10
2019-04-26T15:55:39.672Z,0.87
2019-04-26T15:58:08.491Z,0.90
2019-04-26T16:00:36.192Z,0.97
2019-04-26T16:03:07.524Z,1.30
2019-04-26T16:05:37.692Z,1.10
2019-04-26T16:08:07.602Z,0.90
2019-04-26T16:10:38.445Z,1.10
2019-04-26T16:13:18.252Z,1.40
2019-04-26T16:15:44.306Z,1.03
2019-04-26T16:18:17.036Z,1.10
2019-04-26T16:20:44.459Z,1.30
2019-04-26T16:23:14.754Z,0.97
2019-04-26T16:25:44.632Z,0.90
2019-04-26T16:28:45.902Z,0.90
2019-04-26T16:31:42.087Z,1.07
2019-04-26T16:34:14.146Z,1.20
2019-04-26T16:36:45.407Z,0.87
2019-04-26T16:39:15.933Z,1.00
2019-04-26T16:41:45.828Z,0.80
2019-04-26T16:44:19.275Z,1.10
2019-04-26T16:46:47.336Z,1.40
2019-04-26T16:49:18.312Z,0.70
2019-04-26T16:51:53.918Z,1.00
2019-04-26T16:54:22.932Z,1.00
2019-04-26T16:56:52.734Z,0.90
2019-04-26T17:00:35.776Z,0.80
2019-04-26T17:01:55.642Z,0.70
2019-04-26T17:04:31.975Z,0.80
2019-04-26T17:07:01.710Z,0.80
2019-04-26T17:09:53.946Z,0.93
2019-04-26T17:12:02.407Z,0.83
2019-04-26T17:14:34.147Z,0.80
2019-04-26T17:17:07.478Z,0.97
2019-04-26T17:19:37.526Z,0.80
2019-04-26T17:22:42.582Z,0.90
2019-04-26T17:25:24.269Z,0.70
2019-04-26T17:27:50.479Z,1.27
2019-04-26T17:30:23.380Z,1.00
2019-04-26T17:32:55.186Z,1.20
2019-04-26T17:35:25.388Z,1.10
2019-04-26T17:37:57.486Z,1.40
2019-04-26T17:40:30.100Z,1.30
2019-04-26T17:43:00.521Z,1.10
2019-04-26T17:45:30.676Z,1.27
2019-04-26T17:48:01.417Z,1.20
2019-04-26T17:50:31.509Z,1.27
2019-04-26T17:53:01.516Z,1.40
2019-04-26T17:55:33.588Z,1.33
2019-04-26T17:58:11.884Z,1.60
2019-04-26T18:00:45.952Z,1.17
2019-04-26T18:03:13.941Z,1.40
2019-04-26T18:05:56.745Z,1.27
2019-04-26T18:08:33.634Z,1.10
2019-04-26T18:10:45.620Z,1.37
2019-04-26T18:13:17.628Z,1.40
2019-04-26T18:15:48.608Z,1.20
2019-04-26T18:18:36.305Z,1.40
2019-04-26T18:21:26.974Z,1.40
2019-04-26T18:23:57.298Z,1.40
2019-04-26T18:26:27.227Z,1.03
2019-04-26T18:28:57.130Z,1.20
2019-04-26T18:31:28.776Z,1.20
2019-04-26T18:34:00.773Z,1.33
2019-04-26T18:36:31.989Z,1.30
2019-04-26T18:39:03.711Z,1.23
2019-04-26T18:41:35.547Z,1.07
2019-04-26T18:44:05.737Z,1.33
2019-04-26T18:46:50.069Z,1.00
2019-04-26T18:49:24.528Z,1.00
2019-04-26T18:51:51.657Z,1.20
2019-04-26T18:54:39.687Z,1.40
2019-04-26T18:57:13.599Z,1.30
2019-04-26T18:59:44.801Z,1.33
2019-04-26T19:02:18.655Z,1.10
2019-04-26T19:04:47.930Z,1.40
2019-04-26T19:07:30.974Z,1.43
2019-04-26T19:09:58.765Z,1.40
2019-04-26T19:12:23.424Z,1.30
2019-04-26T19:15:16.800Z,1.50
2019-04-26T19:18:05.755Z,1.50
2019-04-26T19:20:49.161Z,1.50
2019-04-26T19:23:24.443Z,1.70
2019-04-26T19:25:52.017Z,1.53
2019-04-26T19:28:23.164Z,1.93
2019-04-26T19:30:53.338Z,1.87
2019-04-26T19:33:24.320Z,1.80
2019-04-26T19:35:54.351Z,1.80
2019-04-26T19:38:24.246Z,1.60
2019-04-26T19:40:54.166Z,1.50
2019-04-26T19:43:32.437Z,1.83
2019-04-26T19:46:05.031Z,1.50
2019-04-26T19:48:56.915Z,1.30
2019-04-26T19:51:37.650Z,1.50
2019-04-26T19:54:35.645Z,1.60
2019-04-26T19:57:04.824Z,1.50
2019-04-26T19:59:34.790Z,1.43
2019-04-26T20:02:05.779Z,1.50
2019-04-26T20:04:35.772Z,1.43
2019-04-26T20:07:05.771Z,1.67
2019-04-26T20:09:35.752Z,1.53
2019-04-26T20:12:05.808Z,1.60
2019-04-26T20:14:47.282Z,1.60
2019-04-26T20:17:07.336Z,1.60
2019-04-26T20:19:37.715Z,1.40
2019-04-26T20:22:07.805Z,1.13
2019-04-26T20:24:37.664Z,1.60
2019-04-26T20:27:08.481Z,1.50
2019-04-26T20:29:40.717Z,1.87
2019-04-26T20:32:32.485Z,1.43
2019-04-26T20:35:26.770Z,1.70
2019-04-26T20:37:56.191Z,1.50
2019-04-26T20:40:25.658Z,1.60
2019-04-26T20:43:01.973Z,1.40
2019-04-26T20:45:38.809Z,1.40
2019-04-26T20:47:59.381Z,1.40
2019-04-26T20:50:33.466Z,1.33
2019-04-26T20:53:02.350Z,1.20
2019-04-26T20:55:34.599Z,1.40
2019-04-26T20:58:08.496Z,1.70
2019-04-26T21:00:37.819Z,1.40
2019-04-26T21:03:21.032Z,1.30
2019-04-26T21:05:46.198Z,1.13
2019-04-26T21:08:12.490Z,1.20
2019-04-26T21:10:42.597Z,1.50
2019-04-26T21:13:12.761Z,1.40
2019-04-26T21:15:55.972Z,1.50
2019-04-26T21:18:14.448Z,1.47
2019-04-26T21:20:44.403Z,1.50
2019-04-26T21:23:15.403Z,1.30
2019-04-26T21:25:54.390Z,1.50
2019-04-26T21:28:38.022Z,1.30
2019-04-26T21:31:20.705Z,1.33
2019-04-26T21:33:58.121Z,1.40
2019-04-26T21:36:46.029Z,1.20
2019-04-26T21:39:31.516Z,1.73
2019-04-26T21:42:03.549Z,1.47
2019-04-26T21:44:33.902Z,1.57
2019-04-26T21:47:05.198Z,1.50
2019-04-26T21:49:37.961Z,1.60
2019-04-26T21:52:06.880Z,1.40
2019-04-26T21:54:36.786Z,1.47
2019-04-26T21:57:06.736Z,1.70
2019-04-26T21:59:40.828Z,1.60
2019-04-26T22:02:08.838Z,1.80
2019-04-26T22:04:38.774Z,1.33
2019-04-26T22:07:08.930Z,1.50
2019-04-26T22:09:52.955Z,1.73
2019-04-26T22:12:23.399Z,1.70
2019-04-26T22:15:03.844Z,1.80
2019-04-26T22:17:40.559Z,1.60
2019-04-26T22:20:30.715Z,1.60
2019-04-26T22:23:21.544Z,2.00
2019-04-26T22:25:54.043Z,1.60
2019-04-26T22:28:26.710Z,1.43
2019-04-26T22:30:59.322Z,1.60
2019-04-26T22:33:27.462Z,1.70
2019-04-26T22:35:58.692Z,1.60
2019-04-26T22:38:28.509Z,1.70
2019-04-26T22:40:59.602Z,1.40
2019-04-26T22:43:39.559Z,1.60
2019-04-26T22:46:19.177Z,1.60
2019-04-26T22:48:47.765Z,1.60
2019-04-26T22:51:17.741Z,1.70
2019-04-26T22:53:47.717Z,1.60
2019-04-26T22:56:17.721Z,1.47
2019-04-26T22:58:47.660Z,1.67
2019-04-26T23:01:17.665Z,1.60
2019-04-26T23:03:47.565Z,1.50
2019-04-26T23:06:17.502Z,1.50
2019-04-26T23:08:49.291Z,1.60
2019-04-26T23:11:19.196Z,1.70
2019-04-26T23:14:20.322Z,1.60
2019-04-26T23:17:09.220Z,1.60
2019-04-26T23:19:54.212Z,1.43
2019-04-26T23:22:26.315Z,1.67
2019-04-26T23:24:58.016Z,1.60
2019-04-26T23:27:26.824Z,1.70
2019-04-26T23:29:58.297Z,1.60
2019-04-26T23:32:28.271Z,1.47
2019-04-26T23:35:02.112Z,1.97
2019-04-26T23:37:29.828Z,1.43
2019-04-26T23:39:59.801Z,1.87
2019-04-26T23:42:29.714Z,1.70
2019-04-26T23:44:59.766Z,1.50
2019-04-26T23:47:31.986Z,1.67
2019-04-26T23:50:03.620Z,1.60
2019-04-26T23:52:33.718Z,1.63
2019-04-26T23:55:07.301Z,1.80
2019-04-26T23:57:36.465Z,1.50
